首页
METAR-TAF:

METAR-TAF

机场 :

瓦加杜古國際機場

瓦加杜古, 布吉納法索

纬度: 12-21N, 经度: 001-31W, 海拔: 316米

当前天气观测

该预报发布于4小时和4分钟前的10:00 UTC
风速12节,风向
温度 28°C
湿度 14%
气压 1018 hPa
能见度10公里或以上
1500米以下无云,无积雨云

METAR: DFFD 111000Z 08012KT CAVOK 28/M02 Q1018 NOSIG

时间: 14:04 (14:04 UTC)

预报

该预报发布于9小时和4分钟前的05:00 UTC
预报有效从11日的 06点(UTC)到 12日的 12点(UTC)
风速8节,风向东北
能見度: 8000
短暂存在
从 11日的 06点(UTC)到 11日的 10点(UTC)
能見度: 4000
短暂存在
从 12日的 06点(UTC)到 12日的 10点(UTC)
能見度: 4000

TAF: DFFD 110500Z 1106/1212 04008KT 8000 NSC TEMPO 1106/1110 4000 HZ TEMPO 1206/1210 4000 HZ

超过4000个机场的气象观测和天气预报(METAR&TAF报告)。

可查询的气象台以黄色和红色小点在地图上表示。

将鼠标移到小点上方,可查看气象台名称。

然后点击查看天气观测和预报。

如需切换地图:点击带黑十字的绿色按钮放大地图;点击带横线的绿色按钮缩小地图;或者点击绿色箭头查看邻近地区的地图。


METAR-TAF: